Terminal Aerodrome Forecast
Issued by NWS Charleston, WV

Current Version | Previous Version | Graphics & Text | Print | Product List | Glossary On
Versions: 1 2 3 4 5 6 7 8 9 10 11 12 13 14 15 16 17 18 19 20 21 22 23
000
FTUS41 KRLX 190500
TAFPKB
TAF
KPKB 190539Z 1906/2006 00000KT P6SM SKC
     FM190900 00000KT 4SM BR FEW001
     FM191300 00000KT P6SM SCT250
     FM191800 VRB03KT P6SM SCT040=

USA.gov is the U.S. government's official web portal to all federal, state and local government web resources and services.